Time;durP1;ratioP1;P1;durP2;ratioP2;P2;SDS_P1;SDS_P2;PMS_P1;PMS_P2;Temp;Humidity;BMP_temperature;BMP_pressure;BME280_temperature;BME280_humidity;BME280_pressure;Samples;Min_cycle;Max_cycle;Signal;HPM_P1;HPM_P2
2022/09/20 00:00:47;;;;;;;1.23;0.80;;;;;;;-142.37;100.00;59669.53;4958129;28;20031;-69
2022/09/20 00:03:14;;;;;;;2.47;1.02;;;;;;;-142.37;100.00;59669.53;4958344;28;20055;-70
2022/09/20 00:05:41;;;;;;;2.00;1.08;;;;;;;-142.37;100.00;59669.53;4975979;28;20073;-70
2022/09/20 00:08:11;;;;;;;1.00;0.85;;;;;;;-142.37;100.00;59669.53;4975605;28;20050;-70
2022/09/20 00:10:38;;;;;;;1.55;0.90;;;;;;;-142.37;100.00;59669.53;4975790;28;20062;-69
2022/09/20 00:13:09;;;;;;;1.50;0.75;;;;;;;-142.37;100.00;59669.53;4957993;28;20047;-70
2022/09/20 00:15:43;;;;;;;2.15;0.80;;;;;;;-142.37;100.00;59669.53;4958388;28;20027;-69
2022/09/20 00:18:10;;;;;;;1.77;0.73;;;;;;;-142.37;100.00;59669.53;4958200;28;20035;-69
2022/09/20 00:20:36;;;;;;;3.47;1.25;;;;;;;-142.37;100.00;59669.53;4957988;28;20030;-70
2022/09/20 00:23:02;;;;;;;3.40;0.95;;;;;;;-142.37;100.00;59669.53;4975293;28;20035;-70
2022/09/20 00:25:28;;;;;;;1.20;0.77;;;;;;;-142.37;100.00;59669.53;4975973;28;20090;-70
2022/09/20 00:27:54;;;;;;;3.00;0.93;;;;;;;-142.37;100.00;59669.53;4975477;28;20035;-71
2022/09/20 00:30:20;;;;;;;1.33;1.05;;;;;;;-142.37;100.00;59669.53;4957916;28;20244;-69
2022/09/20 00:32:45;;;;;;;2.50;1.02;;;;;;;-142.37;100.00;59669.53;4957979;28;20157;-70
2022/09/20 00:35:11;;;;;;;3.40;1.00;;;;;;;-142.37;100.00;59669.53;4957375;28;20485;-71
2022/09/20 00:37:39;;;;;;;2.00;0.90;;;;;;;-142.37;100.00;59669.53;4974961;28;20026;-69
2022/09/20 00:40:09;;;;;;;0.82;0.77;;;;;;;-142.37;100.00;59669.53;4974267;28;20039;-68
2022/09/20 00:42:35;;;;;;;1.27;0.82;;;;;;;-142.37;100.00;59669.53;4975415;28;20041;-69
2022/09/20 00:45:17;;;;;;;1.23;0.80;;;;;;;-142.37;100.00;59669.53;4957438;28;20038;-69
2022/09/20 00:47:51;;;;;;;1.67;0.65;;;;;;;-142.37;100.00;59669.53;4957612;28;20476;-70
2022/09/20 00:50:23;;;;;;;4.07;0.98;;;;;;;-142.37;100.00;59669.53;4974905;28;20081;-69
2022/09/20 00:52:56;;;;;;;0.85;0.77;;;;;;;-142.37;100.00;59669.53;4973506;28;20041;-69
2022/09/20 00:55:23;;;;;;;2.33;1.13;;;;;;;-142.37;100.00;59669.53;4974940;28;20471;-70
2022/09/20 00:57:50;;;;;;;3.70;1.10;;;;;;;-142.37;100.00;59669.53;4957421;28;20489;-69
2022/09/20 01:00:16;;;;;;;2.55;0.80;;;;;;;-142.37;100.00;59669.53;4974582;28;20038;-69
2022/09/20 01:02:46;;;;;;;1.08;0.80;;;;;;;-142.37;100.00;59669.53;4957385;28;20027;-69
2022/09/20 01:05:14;;;;;;;1.58;0.70;;;;;;;-142.37;100.00;59669.53;4974528;28;20387;-70
2022/09/20 01:07:41;;;;;;;1.45;0.90;;;;;;;-142.37;100.00;59669.53;4974518;28;20030;-69
2022/09/20 01:10:07;;;;;;;1.45;1.02;;;;;;;-142.37;100.00;59669.53;4957353;28;20125;-69
2022/09/20 01:12:35;;;;;;;1.02;0.80;;;;;;;-142.37;100.00;59669.53;4957163;28;20117;-69
2022/09/20 01:15:06;;;;;;;1.65;0.70;;;;;;;-142.37;100.00;59669.53;4956775;28;20035;-70
2022/09/20 01:17:36;;;;;;;2.05;1.02;;;;;;;-142.37;100.00;59669.53;4974218;28;20030;-70
2022/09/20 01:20:18;;;;;;;2.92;0.50;;;;;;;-142.37;100.00;59669.53;4956773;28;20046;-69
2022/09/20 01:23:11;;;;;;;1.75;0.65;;;;;;;-142.37;100.00;59669.53;4974735;28;20026;-69
2022/09/20 01:26:14;;;;;;;2.25;0.60;;;;;;;-142.37;100.00;59669.53;4974268;28;20058;-68
2022/09/20 01:28:42;;;;;;;2.67;1.40;;;;;;;-142.37;100.00;59669.53;4973015;28;20027;-69
2022/09/20 01:31:25;;;;;;;0.80;0.73;;;;;;;-142.37;100.00;59669.53;4973989;28;20038;-70
2022/09/20 01:34:07;;;;;;;2.53;0.93;;;;;;;-142.37;100.00;59669.53;4956462;28;20492;-69
2022/09/20 01:36:54;;;;;;;1.35;1.08;;;;;;;-142.37;100.00;59669.53;4956395;28;20530;-69
2022/09/20 01:39:41;;;;;;;0.70;0.47;;;;;;;-142.37;100.00;59669.53;4973682;28;20034;-70
2022/09/20 01:42:12;;;;;;;1.75;0.52;;;;;;;-142.37;100.00;59669.53;4972702;28;20565;-69
2022/09/20 01:44:45;;;;;;;1.33;0.60;;;;;;;-142.37;100.00;59669.53;4956437;28;20118;-70
2022/09/20 01:47:18;;;;;;;2.28;0.70;;;;;;;-142.37;100.00;59669.53;4973491;28;20411;-69
2022/09/20 01:49:56;;;;;;;1.08;0.52;;;;;;;-142.37;100.00;59669.53;4956756;28;20130;-70
2022/09/20 01:52:39;;;;;;;0.70;0.43;;;;;;;-142.37;100.00;59669.53;4973815;28;20053;-72
2022/09/20 01:55:25;;;;;;;0.38;0.35;;;;;;;-142.37;100.00;59669.53;4956011;28;20072;-70
2022/09/20 01:58:23;;;;;;;2.17;0.70;;;;;;;-142.37;100.00;59669.53;4971916;28;20095;-70
2022/09/20 02:01:25;;;;;;;1.27;0.60;;;;;;;-142.37;100.00;59669.53;4973679;28;20029;-69
2022/09/20 02:04:40;;;;;;;2.17;0.60;;;;;;;-142.37;100.00;59669.53;4972456;28;20034;-71
2022/09/20 02:07:17;;;;;;;2.40;0.82;;;;;;;-142.37;100.00;59669.53;4973418;28;20062;-69
2022/09/20 02:10:21;;;;;;;0.52;0.52;;;;;;;-142.37;100.00;59669.53;4973952;28;20114;-71
2022/09/20 02:12:53;;;;;;;0.28;0.20;;;;;;;-142.37;100.00;59669.53;4974179;28;20043;-70
2022/09/20 02:15:43;;;;;;;0.63;0.43;;;;;;;-142.37;100.00;59669.53;4973486;28;20038;-70
2022/09/20 02:18:46;;;;;;;1.33;0.70;;;;;;;-142.37;100.00;59669.53;4972352;28;20471;-70
2022/09/20 02:21:24;;;;;;;0.63;0.52;;;;;;;-142.37;100.00;59669.53;4973557;28;20035;-70
2022/09/20 02:24:14;;;;;;;1.85;0.40;;;;;;;-142.37;100.00;59669.53;4972596;28;20031;-70
2022/09/20 02:27:07;;;;;;;2.40;0.40;;;;;;;-142.37;100.00;59669.53;4973989;28;20042;-71
2022/09/20 02:29:57;;;;;;;2.15;0.40;;;;;;;-142.37;100.00;59669.53;4973713;28;20042;-69
2022/09/20 02:32:40;;;;;;;0.50;0.30;;;;;;;-142.37;100.00;59669.53;4973583;28;20117;-70
2022/09/20 02:35:11;;;;;;;3.78;0.70;;;;;;;-142.37;100.00;59669.53;4972834;28;20050;-70
2022/09/20 02:38:01;;;;;;;1.45;0.45;;;;;;;-142.37;100.00;59669.53;4972082;28;20031;-70
2022/09/20 02:40:46;;;;;;;2.95;0.40;;;;;;;-142.37;100.00;59669.53;4971947;28;20034;-70
2022/09/20 02:43:38;;;;;;;2.80;0.68;;;;;;;-142.37;100.00;59669.53;4972833;28;20494;-70
2022/09/20 02:46:21;;;;;;;1.38;0.75;;;;;;;-142.37;100.00;59669.53;4955792;28;20042;-70
2022/09/20 02:48:59;;;;;;;0.30;0.30;;;;;;;-142.37;100.00;59669.53;4955998;28;20118;-69
2022/09/20 02:51:42;;;;;;;1.02;0.60;;;;;;;-142.37;100.00;59669.53;4973201;28;20412;-69
2022/09/20 02:54:16;;;;;;;1.85;0.60;;;;;;;-142.37;100.00;59669.53;4971724;28;20404;-70
2022/09/20 02:56:53;;;;;;;2.93;0.73;;;;;;;-142.37;100.00;59669.53;4970206;28;20039;-70
2022/09/20 02:59:31;;;;;;;2.78;2.25;;;;;;;-142.37;100.00;59669.53;4952930;28;20875;-70
2022/09/20 03:02:25;;;;;;;7.78;3.47;;;;;;;-142.37;100.00;59669.53;4973652;28;20110;-70
2022/09/20 03:05:14;;;;;;;11.93;6.67;;;;;;;-142.37;100.00;59669.53;4977014;28;20391;-69
2022/09/20 03:08:02;;;;;;;10.25;7.30;;;;;;;-142.37;100.00;59669.53;4958715;28;20031;-70
2022/09/20 03:10:31;;;;;;;7.22;4.40;;;;;;;-142.37;100.00;59669.53;4976721;28;20433;-70
2022/09/20 03:12:56;;;;;;;7.30;2.85;;;;;;;-142.37;100.00;59669.53;4975222;28;20042;-71
2022/09/20 03:15:35;;;;;;;5.70;2.80;;;;;;;-142.37;100.00;59669.53;4975771;28;20031;-69
2022/09/20 03:18:18;;;;;;;2.65;1.23;;;;;;;-142.37;100.00;59669.53;4959562;28;20527;-70
2022/09/20 03:21:21;;;;;;;1.80;1.17;;;;;;;-142.37;100.00;59669.53;4959170;28;20407;-70
2022/09/20 03:23:53;;;;;;;3.78;0.90;;;;;;;-142.37;100.00;59669.53;4976735;28;20460;-69
2022/09/20 03:26:33;;;;;;;3.63;1.00;;;;;;;-142.37;100.00;59669.53;4975410;28;20097;-70
2022/09/20 03:29:03;;;;;;;2.65;1.05;;;;;;;-142.37;100.00;59669.53;4976492;28;20035;-71
2022/09/20 03:31:57;;;;;;;4.80;1.20;;;;;;;-142.37;100.00;59669.53;4977226;28;20039;-70
2022/09/20 03:34:54;;;;;;;1.48;0.82;;;;;;;-142.37;100.00;59669.53;4959427;28;20082;-69
2022/09/20 03:37:48;;;;;;;1.95;0.82;;;;;;;-142.37;100.00;59669.53;4974665;28;20034;-68
2022/09/20 03:40:29;;;;;;;0.60;0.40;;;;;;;-142.37;100.00;59669.53;4937765;28;20047;-70
2022/09/20 03:43:28;;;;;;;2.00;0.77;;;;;;;-142.37;100.00;59669.53;4974870;28;20642;-70
2022/09/20 03:46:15;;;;;;;1.70;0.65;;;;;;;-142.37;100.00;59669.53;4953655;28;20039;-70
2022/09/20 03:48:59;;;;;;;2.75;0.70;;;;;;;-142.37;100.00;59669.53;4958703;28;20134;-70
2022/09/20 03:51:52;;;;;;;1.10;0.80;;;;;;;-142.37;100.00;59669.53;4958399;28;20031;-69
2022/09/20 03:54:58;;;;;;;3.08;0.70;;;;;;;-142.37;100.00;59669.53;4965186;28;20042;-70
2022/09/20 03:57:59;;;;;;;1.95;0.77;;;;;;;-142.37;100.00;59669.53;4975689;28;20122;-69
2022/09/20 04:00:33;;;;;;;2.58;0.90;;;;;;;-142.37;100.00;59669.53;4975500;28;20062;-70
2022/09/20 04:03:23;;;;;;;8.63;2.20;;;;;;;-142.37;100.00;59669.53;4975318;28;20034;-69
2022/09/20 04:05:58;;;;;;;4.10;1.35;;;;;;;-142.37;100.00;59669.53;4975694;28;20049;-69
2022/09/20 04:09:05;;;;;;;3.80;1.15;;;;;;;-142.37;100.00;59669.53;4975409;28;20031;-70
2022/09/20 04:12:07;;;;;;;2.28;1.10;;;;;;;-142.37;100.00;59669.53;4949997;28;20404;-70
2022/09/20 04:14:49;;;;;;;1.55;0.90;;;;;;;-142.37;100.00;59669.53;4898694;29;20032;-69
2022/09/20 04:17:45;;;;;;;5.07;0.75;;;;;;;-142.37;100.00;59669.53;4952235;28;20567;-71
2022/09/20 04:20:22;;;;;;;2.67;0.82;;;;;;;-142.37;100.00;59669.53;4967243;28;20043;-70
2022/09/20 04:22:52;;;;;;;3.33;1.08;;;;;;;-142.37;100.00;59669.53;4975279;28;20563;-69
2022/09/20 04:25:26;;;;;;;0.75;0.70;;;;;;;-142.37;100.00;59669.53;4974744;28;20026;-70
2022/09/20 04:27:52;;;;;;;2.28;0.90;;;;;;;-142.37;100.00;59669.53;4957630;28;20094;-69
2022/09/20 04:30:29;;;;;;;1.58;1.08;;;;;;;-142.37;100.00;59669.53;4975226;28;20102;-69
2022/09/20 04:32:59;;;;;;;1.40;0.90;;;;;;;-142.37;100.00;59669.53;4975032;28;20109;-69
2022/09/20 04:38:39;;;;;;;0.70;0.55;;;;;;;-142.37;100.00;59669.53;4974825;28;20057;-69
2022/09/20 04:41:20;;;;;;;3.22;1.25;;;;;;;-142.37;100.00;59669.53;4974918;28;20026;-70
2022/09/20 04:44:11;;;;;;;1.98;0.80;;;;;;;-142.37;100.00;59669.53;4973381;28;20066;-70
2022/09/20 04:46:41;;;;;;;5.78;0.85;;;;;;;-142.37;100.00;59669.53;4971451;28;20403;-70
2022/09/20 04:49:38;;;;;;;1.67;0.88;;;;;;;-142.37;100.00;59669.53;4973026;28;20597;-70
2022/09/20 04:52:28;;;;;;;2.22;0.50;;;;;;;-142.37;100.00;59669.53;4974431;28;20500;-71
2022/09/20 04:55:14;;;;;;;2.05;1.20;;;;;;;-142.37;100.00;59669.53;4957306;28;20094;-70
2022/09/20 04:57:45;;;;;;;1.00;0.60;;;;;;;-142.37;100.00;59669.53;4973433;28;20031;-70
2022/09/20 05:00:13;;;;;;;0.55;0.55;;;;;;;-142.37;100.00;59669.53;4973050;28;20038;-70
2022/09/20 05:03:00;;;;;;;1.10;0.77;;;;;;;-142.37;100.00;59669.53;4956887;28;20031;-71
2022/09/20 05:05:29;;;;;;;3.78;0.75;;;;;;;-142.37;100.00;59669.53;4974477;28;20073;-71
2022/09/20 05:08:19;;;;;;;1.25;0.60;;;;;;;-142.37;100.00;59669.53;4973143;28;20399;-70
2022/09/20 05:11:09;;;;;;;1.17;0.40;;;;;;;-142.37;100.00;59669.53;4974076;28;20077;-71
2022/09/20 05:14:12;;;;;;;1.30;0.50;;;;;;;-142.37;100.00;59669.53;4974023;28;20030;-70
2022/09/20 05:17:05;;;;;;;1.00;0.60;;;;;;;-142.37;100.00;59669.53;4972782;28;20089;-70
2022/09/20 05:19:57;;;;;;;2.63;0.80;;;;;;;-142.37;100.00;59669.53;4973559;28;20049;-72
2022/09/20 05:22:31;;;;;;;1.42;0.60;;;;;;;-142.37;100.00;59669.53;4973911;28;20027;-70
2022/09/20 05:25:06;;;;;;;3.75;0.70;;;;;;;-142.37;100.00;59669.53;4971783;28;20058;-72
2022/09/20 05:27:39;;;;;;;1.90;0.70;;;;;;;-142.37;100.00;59669.53;4973708;28;20488;-71
2022/09/20 05:30:17;;;;;;;2.88;0.60;;;;;;;-142.37;100.00;59669.53;4973843;28;20061;-71
2022/09/20 05:33:00;;;;;;;1.25;0.70;;;;;;;-142.37;100.00;59669.53;4973417;28;20129;-72
2022/09/20 05:35:42;;;;;;;1.75;0.57;;;;;;;-142.37;100.00;59669.53;4971093;28;20063;-71
2022/09/20 05:38:49;;;;;;;1.70;0.82;;;;;;;-142.37;100.00;59669.53;4955596;28;20074;-71
2022/09/20 05:41:39;;;;;;;3.83;0.50;;;;;;;-142.37;100.00;59669.53;4955285;28;20061;-70
2022/09/20 05:44:24;;;;;;;2.05;1.00;;;;;;;-142.37;100.00;59669.53;4955020;28;20400;-72
2022/09/20 05:47:08;;;;;;;1.58;0.50;;;;;;;-142.37;100.00;59669.53;4955582;28;20039;-70
2022/09/20 05:49:53;;;;;;;2.13;0.50;;;;;;;-142.37;100.00;59669.53;4972514;28;20035;-70
2022/09/20 05:52:42;;;;;;;1.13;0.50;;;;;;;-142.37;100.00;59669.53;4972570;28;20372;-70
2022/09/20 05:55:39;;;;;;;1.63;0.50;;;;;;;-142.37;100.00;59669.53;4954881;28;20141;-70
2022/09/20 05:58:42;;;;;;;3.10;0.40;;;;;;;-142.37;100.00;59669.53;4972069;28;20033;-70
2022/09/20 06:01:25;;;;;;;2.95;0.35;;;;;;;-142.37;100.00;59669.53;4970415;28;20041;-72
2022/09/20 06:04:21;;;;;;;2.03;0.38;;;;;;;-142.37;100.00;59669.53;4972740;28;20133;-70
2022/09/20 06:07:18;;;;;;;2.05;0.30;;;;;;;-142.37;100.00;59669.53;4972837;28;20038;-71
2022/09/20 06:10:14;;;;;;;2.30;0.65;;;;;;;-142.37;100.00;59669.53;4954344;28;20031;-71
2022/09/20 06:12:57;;;;;;;1.13;0.73;;;;;;;-142.37;100.00;59669.53;4955072;28;20448;-70
2022/09/20 06:15:47;;;;;;;0.80;0.40;;;;;;;-142.37;100.00;59669.53;4972232;28;20035;-69
2022/09/20 06:18:15;;;;;;;6.18;0.77;;;;;;;-142.37;100.00;59669.53;4971534;28;20030;-71
2022/09/20 06:21:02;;;;;;;2.40;0.47;;;;;;;-142.37;100.00;59669.53;4970685;28;20045;-72
2022/09/20 06:23:30;;;;;;;2.05;0.60;;;;;;;-142.37;100.00;59669.53;4970758;28;20062;-72
2022/09/20 06:26:01;;;;;;;1.67;0.50;;;;;;;-142.37;100.00;59669.53;4953603;28;20413;-70
2022/09/20 06:28:33;;;;;;;3.03;1.08;;;;;;;-142.37;100.00;59669.53;4972255;28;20062;-71
2022/09/20 06:30:59;;;;;;;3.58;0.75;;;;;;;-142.37;100.00;59669.53;4971495;28;20137;-71
2022/09/20 06:33:27;;;;;;;4.25;0.60;;;;;;;-142.37;100.00;59669.53;4954079;28;20031;-71
2022/09/20 06:42:46;;;;;;;2.17;0.60;;;;;;;-142.37;100.00;59669.53;4975939;28;20467;-68
2022/09/20 06:45:15;;;;;;;3.53;1.35;;;;;;;-142.37;100.00;59669.53;4975530;28;20030;-72
2022/09/20 06:47:40;;;;;;;1.17;0.50;;;;;;;-142.37;100.00;59669.53;4958281;28;20030;-70
2022/09/20 06:50:15;;;;;;;1.23;0.60;;;;;;;-142.37;100.00;59669.53;4976154;28;20041;-71
2022/09/20 06:52:43;;;;;;;0.63;0.57;;;;;;;-142.37;100.00;59669.53;4975767;28;20117;-70
2022/09/20 06:55:17;;;;;;;2.20;0.77;;;;;;;-142.37;100.00;59669.53;4975491;28;20035;-71
2022/09/20 06:57:44;;;;;;;1.13;0.40;;;;;;;-142.37;100.00;59669.53;4958301;28;20035;-71
2022/09/20 07:00:14;;;;;;;2.70;0.40;;;;;;;-142.37;100.00;59669.53;4958458;28;20650;-69
2022/09/20 07:02:43;;;;;;;1.55;0.43;;;;;;;-142.37;100.00;59669.53;4976080;28;20027;-69
2022/09/20 07:05:16;;;;;;;5.60;0.57;;;;;;;-142.37;100.00;59669.53;4975772;28;20385;-70
2022/09/20 07:07:43;;;;;;;2.63;0.40;;;;;;;-142.37;100.00;59669.53;4976236;28;20046;-70
2022/09/20 07:10:10;;;;;;;2.38;0.40;;;;;;;-142.37;100.00;59669.53;4958201;28;20054;-71
2022/09/20 07:12:36;;;;;;;3.05;0.50;;;;;;;-142.37;100.00;59669.53;4958250;28;20419;-69
2022/09/20 07:15:02;;;;;;;1.55;0.40;;;;;;;-142.37;100.00;59669.53;4957970;28;20074;-69
2022/09/20 07:17:28;;;;;;;0.95;0.30;;;;;;;-142.37;100.00;59669.53;4958372;28;20149;-70
2022/09/20 07:19:55;;;;;;;1.67;0.40;;;;;;;-142.37;100.00;59669.53;4975649;28;20118;-69
2022/09/20 07:22:21;;;;;;;3.97;0.75;;;;;;;-142.37;100.00;59669.53;4975732;28;20049;-70
2022/09/20 07:24:47;;;;;;;3.05;0.40;;;;;;;-142.37;100.00;59669.53;4958049;28;20424;-70
2022/09/20 07:27:13;;;;;;;1.25;0.80;;;;;;;-142.37;100.00;59669.53;4975135;28;20026;-67
2022/09/20 07:29:39;;;;;;;2.50;0.75;;;;;;;-142.37;100.00;59669.53;4975423;28;20492;-69
2022/09/20 07:32:06;;;;;;;3.50;0.50;;;;;;;-142.37;100.00;59669.53;4975425;28;20045;-71
2022/09/20 07:34:31;;;;;;;2.85;0.60;;;;;;;-142.37;100.00;59669.53;4957366;28;20503;-71
2022/09/20 07:36:58;;;;;;;3.15;0.70;;;;;;;-142.37;100.00;59669.53;4974578;28;20038;-70
2022/09/20 07:39:25;;;;;;;2.72;0.50;;;;;;;-142.37;100.00;59669.53;4975005;28;20377;-71
2022/09/20 07:41:51;;;;;;;3.13;0.57;;;;;;;-142.37;100.00;59669.53;4958016;28;20093;-68
2022/09/20 07:44:20;;;;;;;8.18;1.08;;;;;;;-142.37;100.00;59669.53;4957647;28;20484;-69
2022/09/20 07:46:56;;;;;;;1.00;0.30;;;;;;;-142.37;100.00;59669.53;4975312;28;20066;-70
2022/09/20 07:49:22;;;;;;;4.47;0.60;;;;;;;-142.37;100.00;59669.53;4957483;28;20408;-72
2022/09/20 07:51:49;;;;;;;0.63;0.40;;;;;;;-142.37;100.00;59669.53;4957002;28;20117;-70
2022/09/20 07:54:15;;;;;;;1.40;0.75;;;;;;;-142.37;100.00;59669.53;4974738;28;20031;-70
2022/09/20 07:56:41;;;;;;;3.10;0.45;;;;;;;-142.37;100.00;59669.53;4975164;28;20046;-71
2022/09/20 07:59:09;;;;;;;1.25;0.40;;;;;;;-142.37;100.00;59669.53;4957619;28;20113;-71
2022/09/20 08:01:35;;;;;;;1.20;0.82;;;;;;;-142.37;100.00;59669.53;4975575;28;20035;-70
2022/09/20 08:04:01;;;;;;;0.70;0.40;;;;;;;-142.37;100.00;59669.53;4957135;28;20208;-71
2022/09/20 08:06:26;;;;;;;1.88;0.30;;;;;;;-142.37;100.00;59669.53;4957268;28;20197;-70
2022/09/20 08:08:53;;;;;;;1.35;0.30;;;;;;;-142.37;100.00;59669.53;4957393;28;20042;-69
2022/09/20 08:11:24;;;;;;;2.67;0.38;;;;;;;-142.37;100.00;59669.53;4974682;28;20055;-71
2022/09/20 08:13:51;;;;;;;1.13;0.30;;;;;;;-142.37;100.00;59669.53;4975324;28;20080;-70
2022/09/20 08:16:18;;;;;;;1.23;0.35;;;;;;;-142.37;100.00;59669.53;4957682;28;20027;-71
2022/09/20 08:18:46;;;;;;;2.25;0.57;;;;;;;-142.37;100.00;59669.53;4956361;28;20035;-70
2022/09/20 08:21:13;;;;;;;0.75;0.30;;;;;;;-142.37;100.00;59669.53;4973058;28;20500;-70
2022/09/20 08:23:41;;;;;;;2.88;0.55;;;;;;;-142.37;100.00;59669.53;4974650;28;20034;-70
2022/09/20 08:26:13;;;;;;;2.20;0.40;;;;;;;-142.37;100.00;59669.53;4975007;28;20426;-70
2022/09/20 08:28:40;;;;;;;1.50;0.43;;;;;;;-142.37;100.00;59669.53;4957013;28;20090;-72
2022/09/20 08:31:08;;;;;;;1.85;0.30;;;;;;;-142.37;100.00;59669.53;4956950;28;20078;-72
2022/09/20 08:33:37;;;;;;;3.30;0.60;;;;;;;-142.37;100.00;59669.53;4974268;28;20110;-71
2022/09/20 08:36:10;;;;;;;0.82;0.20;;;;;;;-142.37;100.00;59669.53;4974269;28;20078;-73
2022/09/20 08:38:36;;;;;;;1.95;0.32;;;;;;;-142.37;100.00;59669.53;4958444;28;20547;-73
2022/09/20 08:41:32;;;;;;;2.58;0.30;;;;;;;-142.37;100.00;59669.53;4974016;28;20035;-74
2022/09/20 08:43:59;;;;;;;2.22;0.45;;;;;;;-142.37;100.00;59669.53;4969328;28;20109;-76
2022/09/20 08:46:34;;;;;;;1.67;0.60;;;;;;;-142.37;100.00;59669.53;4973377;28;20034;-74
2022/09/20 08:49:03;;;;;;;0.77;0.43;;;;;;;-142.37;100.00;59669.53;4956420;28;20469;-74
2022/09/20 08:51:33;;;;;;;2.00;1.02;;;;;;;-142.37;100.00;59669.53;4973809;28;20065;-73
2022/09/20 08:53:59;;;;;;;2.25;1.02;;;;;;;-142.37;100.00;59669.53;4973935;28;20138;-74
2022/09/20 08:56:32;;;;;;;0.63;0.30;;;;;;;-142.37;100.00;59669.53;4973570;28;20030;-72
2022/09/20 08:58:59;;;;;;;2.70;0.35;;;;;;;-142.37;100.00;59669.53;4956165;28;20372;-74
2022/09/20 09:01:28;;;;;;;2.30;0.63;;;;;;;-142.37;100.00;59669.53;4973429;28;20037;-74
2022/09/20 09:04:15;;;;;;;1.92;0.63;;;;;;;-142.37;100.00;59669.53;4973750;28;20476;-74
2022/09/20 09:06:42;;;;;;;0.88;0.30;;;;;;;-142.37;100.00;59669.53;4956333;28;20511;-73
2022/09/20 09:09:24;;;;;;;2.72;0.60;;;;;;;-142.37;100.00;59669.53;4973834;28;20030;-72
2022/09/20 09:11:52;;;;;;;1.65;0.50;;;;;;;-142.37;100.00;59669.53;4956187;28;20034;-71
2022/09/20 09:14:47;;;;;;;1.02;0.50;;;;;;;-142.37;100.00;59669.53;4956027;28;20062;-74
2022/09/20 09:17:19;;;;;;;1.02;0.50;;;;;;;-142.37;100.00;59669.53;4973506;28;20054;-70
2022/09/20 09:19:46;;;;;;;0.55;0.20;;;;;;;-142.37;100.00;59669.53;4973418;28;20026;-72
2022/09/20 09:22:22;;;;;;;1.35;0.80;;;;;;;-142.37;100.00;59669.53;4973606;28;20062;-72
2022/09/20 09:25:09;;;;;;;0.50;0.28;;;;;;;-142.37;100.00;59669.53;4973559;28;20038;-74
2022/09/20 09:27:57;;;;;;;3.97;0.45;;;;;;;-142.37;100.00;59669.53;4956146;28;20106;-73
2022/09/20 09:30:29;;;;;;;3.03;0.40;;;;;;;-142.37;100.00;59669.53;4973220;28;20428;-72
2022/09/20 09:33:13;;;;;;;1.02;0.50;;;;;;;-142.37;100.00;59669.53;4955509;28;20444;-74
2022/09/20 09:35:38;;;;;;;0.73;0.40;;;;;;;-142.37;100.00;59669.53;4972870;28;20078;-72
2022/09/20 09:38:07;;;;;;;1.27;0.40;;;;;;;-142.37;100.00;59669.53;4955577;28;20031;-71
2022/09/20 09:40:34;;;;;;;0.47;0.40;;;;;;;-142.37;100.00;59669.53;4972191;28;20039;-74
2022/09/20 09:43:03;;;;;;;4.57;1.13;;;;;;;-142.37;100.00;59669.53;4972363;28;20109;-72
2022/09/20 09:45:34;;;;;;;0.50;0.40;;;;;;;-142.37;100.00;59669.53;4955262;28;20038;-71
2022/09/20 09:48:01;;;;;;;0.52;0.20;;;;;;;-142.37;100.00;59669.53;4972210;28;20042;-72
2022/09/20 09:50:33;;;;;;;2.10;0.43;;;;;;;-142.37;100.00;59669.53;4954414;28;20129;-72
2022/09/20 09:53:02;;;;;;;1.73;0.20;;;;;;;-142.37;100.00;59669.53;4955994;28;20197;-72
2022/09/20 09:55:42;;;;;;;2.55;0.45;;;;;;;-142.37;100.00;59669.53;4975005;28;20103;-70
2022/09/20 09:58:47;;;;;;;1.60;0.57;;;;;;;-142.37;100.00;59669.53;4956956;28;20054;-70
2022/09/20 10:01:38;;;;;;;4.40;1.08;;;;;;;-142.37;100.00;59669.53;4970985;28;20121;-71
2022/09/20 10:04:24;;;;;;;5.10;0.60;;;;;;;-142.37;100.00;59669.53;4954891;28;20054;-73
2022/09/20 10:07:05;;;;;;;2.72;0.68;;;;;;;-142.37;100.00;59669.53;4955225;28;20066;-71
2022/09/20 10:10:12;;;;;;;1.02;0.60;;;;;;;-142.37;100.00;59669.53;4972136;28;20038;-72
2022/09/20 10:12:58;;;;;;;1.65;0.30;;;;;;;-142.37;100.00;59669.53;4970283;28;20054;-71
2022/09/20 10:15:44;;;;;;;0.57;0.50;;;;;;;-142.37;100.00;59669.53;4954627;28;20030;-73
2022/09/20 10:18:35;;;;;;;2.30;0.40;;;;;;;-142.37;100.00;59669.53;4971887;28;20031;-71
2022/09/20 10:21:28;;;;;;;1.27;0.90;;;;;;;-142.37;100.00;59669.53;4972175;28;20039;-71
2022/09/20 10:24:39;;;;;;;3.42;1.05;;;;;;;-142.37;100.00;59669.53;4970889;28;20117;-73
2022/09/20 10:27:26;;;;;;;1.50;0.50;;;;;;;-142.37;100.00;59669.53;4956868;28;20058;-71
2022/09/20 10:30:11;;;;;;;0.60;0.50;;;;;;;-142.37;100.00;59669.53;4954806;28;20044;-71
2022/09/20 10:32:58;;;;;;;1.83;0.50;;;;;;;-142.37;100.00;59669.53;4947470;28;20573;-72
2022/09/20 10:36:01;;;;;;;2.30;0.43;;;;;;;-142.37;100.00;59669.53;4954180;28;20070;-71
2022/09/20 10:38:44;;;;;;;3.15;0.80;;;;;;;-142.37;100.00;59669.53;4970935;28;20125;-71
2022/09/20 10:44:38;;;;;;;0.85;0.40;;;;;;;-142.37;100.00;59669.53;4972256;28;20399;-69
2022/09/20 10:47:13;;;;;;;2.30;0.60;;;;;;;-142.37;100.00;59669.53;4972117;28;20038;-72
2022/09/20 10:49:48;;;;;;;1.02;0.20;;;;;;;-142.37;100.00;59669.53;4954252;28;20384;-71
2022/09/20 10:52:53;;;;;;;0.60;0.40;;;;;;;-142.37;100.00;59669.53;4972424;28;20031;-71
2022/09/20 10:55:47;;;;;;;1.02;0.40;;;;;;;-142.37;100.00;59669.53;4946951;28;20041;-71
2022/09/20 10:58:31;;;;;;;1.42;0.40;;;;;;;-142.37;100.00;59669.53;4954024;28;20075;-70
2022/09/20 11:01:17;;;;;;;1.67;0.35;;;;;;;-142.37;100.00;59669.53;4971412;28;20487;-71
2022/09/20 11:03:49;;;;;;;4.97;0.30;;;;;;;-142.37;100.00;59669.53;4972565;28;20476;-69
2022/09/20 11:06:40;;;;;;;1.58;0.50;;;;;;;-142.37;100.00;59669.53;4971625;28;20062;-72
2022/09/20 11:09:10;;;;;;;3.70;1.02;;;;;;;-142.37;100.00;59669.53;4971595;28;20065;-72
2022/09/20 11:11:45;;;;;;;2.67;0.40;;;;;;;-142.37;100.00;59669.53;4971988;28;20058;-70
2022/09/20 11:14:30;;;;;;;;;;;;;;;-142.37;100.00;59669.53;4972730;28;20049;-70
2022/09/20 11:17:14;;;;;;;0.63;0.30;;;;;;;-142.37;100.00;59669.53;4971787;28;19929;-71
2022/09/20 11:20:05;;;;;;;0.60;0.50;;;;;;;-142.37;100.00;59669.53;4972042;28;20030;-70
2022/09/20 11:22:39;;;;;;;0.93;0.50;;;;;;;-142.37;100.00;59669.53;4955058;28;20081;-71
2022/09/20 11:25:05;;;;;;;;;;;;;;;-142.37;100.00;59669.53;4958701;28;20038;-71
2022/09/20 11:27:38;;;;;;;3.88;0.70;;;;;;;-142.37;100.00;59669.53;4975627;28;19914;-72
2022/09/20 11:30:17;;;;;;;1.55;0.60;;;;;;;-142.37;100.00;59669.53;4957998;28;20042;-70
2022/09/20 11:33:14;;;;;;;2.40;0.30;;;;;;;-142.37;100.00;59669.53;4976360;28;20030;-72
2022/09/20 11:35:50;;;;;;;2.55;0.50;;;;;;;-142.37;100.00;59669.53;4974185;28;20054;-70
2022/09/20 11:38:26;;;;;;;0.90;0.40;;;;;;;-142.37;100.00;59669.53;4957750;28;20461;-71
2022/09/20 11:40:56;;;;;;;0.95;0.50;;;;;;;-142.37;100.00;59669.53;4957622;28;20043;-72
2022/09/20 11:43:30;;;;;;;0.50;0.47;;;;;;;-142.37;100.00;59669.53;4957674;28;20035;-69
2022/09/20 11:46:03;;;;;;;2.95;0.40;;;;;;;-142.37;100.00;59669.53;4975476;28;20046;-72
2022/09/20 11:48:37;;;;;;;0.95;0.25;;;;;;;-142.37;100.00;59669.53;4957675;28;20030;-72
2022/09/20 11:51:33;;;;;;;3.33;0.40;;;;;;;-142.37;100.00;59669.53;4974802;28;20065;-71
2022/09/20 11:54:31;;;;;;;1.00;0.32;;;;;;;-142.37;100.00;59669.53;4975129;28;20042;-71
2022/09/20 11:56:57;;;;;;;0.65;0.50;;;;;;;-142.37;100.00;59669.53;4957748;28;20380;-70
2022/09/20 11:59:52;;;;;;;2.50;0.70;;;;;;;-142.37;100.00;59669.53;4974885;28;20038;-70
2022/09/20 12:02:24;;;;;;;;;;;;;;;-142.37;100.00;59669.53;4955205;28;20122;-73
2022/09/20 12:04:52;;;;;;;0.68;0.40;;;;;;;-142.37;100.00;59669.53;4975303;28;19961;-72
2022/09/20 12:07:50;;;;;;;3.80;0.77;;;;;;;-142.37;100.00;59669.53;4974765;28;20030;-72
2022/09/20 12:10:22;;;;;;;3.90;0.55;;;;;;;-142.37;100.00;59669.53;4946124;28;20062;-70
2022/09/20 12:12:54;;;;;;;7.70;0.45;;;;;;;-142.37;100.00;59669.53;4972995;28;20034;-71